Terminal Aerodrome Forecast
Issued by NWS

Home | Current Version | Previous Version | Text Only | Print | Product List | Glossary On
Versions: 1 2 3 4 5 6 7 8 9 10 11 12 13 14 15 16 17 18 19 20 21 22 23 24 25
807
FTUS43 KGRB 241726
TAFMTW
TAF
KMTW 241726Z 2418/2518 03014G24KT 3/4SM -SN OVC007
      TEMPO 2418/2422 1 1/2SM -FZDZSN SCT007 OVC015
     FM242200 01014G24KT 1 1/2SM -FZDZSN BR OVC008
     FM250500 35016G25KT 2SM -SN BR OVC012
     FM251200 32017G25KT P6SM -SN SCT015 OVC025 PROB30 2512/2516 3SM
      -SN BKN015
     FM251600 30018G28KT P6SM SCT015 OVC035=

USA.gov is the U.S. government's official web portal to all federal, state and local government web resources and services.